»·PEaware :: N17MA KSNA-KBUR

N17MA :: KSNA-KBUR

FLIGHT INFORMATION

Flight Status: Arrived
Operator: Privately registered:
United States
More flights under this callsign
Pilot: Diego M. (28112)
Aircraft: CESSNA 172 SKYHAWK
(C172)
More flights by this aircraft type
Origin: KSNA John Wayne-Orange Co
United States
Destination: KBUR Bob Hope-Burbank
United States
More flights between these airports :: More routes between these airports
Route: SLI V23 POPPR SMO125R SMO SMO311R SILEX
File this flight plan on PilotEdge
Remarks: CSTP1
Altitude:
(Current/Filed)
4,000ft
Speed:
(Current/Filed)
120kts
Departed: 12-May-20 08:01 AM
Arrived: 12-May-20 08:34 AM
Distance/Time
Traveled:
40nm/0:33
Distance/Time
To Go:
Arrived

Flight Plot

Page will automatically refresh every two minutes.


Map Options




Map Legend


Flown Route
Filed Route
Departure Airport
Arrival Airport
Navaid (VOR, NDB)
Fix

Horizontal Profiles

Position Reports

Time Latitude Longitude Heading Altitude Ground
Speed
12-May-20 07:48 33.674106 -117.871926 118 60ft 0kts
12-May-20 07:49 33.674106 -117.871926 118 60ft 0kts
12-May-20 07:50 33.674106 -117.871926 118 60ft 0kts
12-May-20 07:51 33.674106 -117.871926 118 60ft 0kts
12-May-20 07:52 33.674106 -117.871926 118 60ft 0kts
12-May-20 07:53 33.674106 -117.871926 118 60ft 0kts
12-May-20 07:54 33.674050 -117.871352 25 60ft 2kts
12-May-20 07:55 33.676880 -117.869580 28 60ft 13kts
12-May-20 07:56 33.680021 -117.867772 31 60ft 9kts
12-May-20 07:57 33.681180 -117.866364 118 60ft 0kts
12-May-20 07:59 33.681180 -117.866364 118 60ft 0kts
12-May-20 08:00 33.680490 -117.865794 206 60ft 5kts
12-May-20 08:01 33.665741 -117.876101 227 563ft 83kts
12-May-20 08:02 33.654332 -117.902577 247 1532ft 91kts
12-May-20 08:03 33.642099 -117.932551 276 2235ft 108kts
12-May-20 08:04 33.658609 -117.961272 324 2875ft 114kts
12-May-20 08:05 33.685583 -117.982695 329 3532ft 118kts
12-May-20 08:06 33.714513 -118.003927 327 4007ft 132kts
12-May-20 08:07 33.747835 -118.028555 326 4008ft 144kts
12-May-20 08:08 33.780397 -118.056538 296 4008ft 140kts
12-May-20 08:09 33.794132 -118.097886 283 4007ft 129kts
12-May-20 08:10 33.804840 -118.139422 284 4006ft 131kts
12-May-20 08:11 33.815194 -118.180280 292 4003ft 120kts
12-May-20 08:12 33.824868 -118.218189 291 4003ft 116kts
12-May-20 08:13 33.834281 -118.255189 290 4003ft 114kts
12-May-20 08:13 33.842958 -118.285244 308 3992ft 111kts
12-May-20 08:15 33.869190 -118.314824 320 3995ft 110kts
12-May-20 08:16 33.892927 -118.338757 321 3996ft 112kts
12-May-20 08:16 33.913174 -118.359097 321 3996ft 113kts
12-May-20 08:17 33.937459 -118.383513 323 3995ft 114kts
12-May-20 08:18 33.962356 -118.408550 324 3994ft 117kts
12-May-20 08:20 33.994188 -118.440548 320 3996ft 137kts
12-May-20 08:20 34.019139 -118.463847 325 3994ft 136kts
12-May-20 08:21 34.048738 -118.487892 325 3993ft 120kts
12-May-20 08:22 34.076561 -118.510469 324 3993ft 120kts
12-May-20 08:23 34.104367 -118.533045 326 3991ft 119kts
12-May-20 08:24 34.132526 -118.555922 327 3992ft 124kts
12-May-20 08:25 34.157586 -118.576321 330 3970ft 90kts
12-May-20 08:26 34.180194 -118.585862 40 3136ft 95kts
12-May-20 08:27 34.192119 -118.556820 62 2992ft 99kts
12-May-20 08:28 34.200480 -118.525072 90 2992ft 103kts
12-May-20 08:29 34.199274 -118.488814 87 2693ft 113kts
12-May-20 08:30 34.198860 -118.451050 91 2101ft 108kts
12-May-20 08:31 34.198449 -118.414869 92 1518ft 107kts
12-May-20 08:32 34.198065 -118.379982 93 953ft 85kts
12-May-20 08:33 34.197242 -118.364685 181 721ft 7kts
12-May-20 08:34 34.197107 -118.364687 179 720ft 0kts
12-May-20 08:35 34.196889 -118.364999 283 720ft 0kts
12-May-20 08:36 34.196471 -118.366984 272 723ft 3kts
12-May-20 08:37 34.196566 -118.367253 359 723ft 0kts

Navigation Log

Ident Type
Flight plan parsing failed, navigation log unavailable